Time;durP1;ratioP1;P1;durP2;ratioP2;P2;SDS_P1;SDS_P2;PMS_P1;PMS_P2;Temp;Humidity;BMP_temperature;BMP_pressure;BME280_temperature;BME280_humidity;BME280_pressure;Samples;Min_cycle;Max_cycle;Signal;HPM_P1;HPM_P2
2021/07/17 00:01:48;;;;;;;21.25;4.40;;;;;10.70;100851.00;;;;5106471;28;20410;-70
2021/07/17 00:04:14;;;;;;;12.30;3.47;;;;;10.50;100838.00;;;;5106287;28;20036;-69
2021/07/17 00:06:41;;;;;;;14.52;3.20;;;;;10.40;100853.00;;;;5106306;28;20047;-70
2021/07/17 00:09:07;;;;;;;8.70;3.25;;;;;10.40;100852.00;;;;5107056;28;20032;-70
2021/07/17 00:11:34;;;;;;;8.32;2.47;;;;;10.40;100846.00;;;;5106046;28;20035;-70
2021/07/17 00:14:01;;;;;;;12.50;2.20;;;;;10.30;100828.00;;;;5109605;28;20031;-70
2021/07/17 00:16:29;;;;;;;7.10;2.28;;;;;10.20;100854.00;;;;5110874;28;20359;-71
2021/07/17 00:18:56;;;;;;;9.65;2.75;;;;;10.20;100848.00;;;;5110431;28;20588;-69
2021/07/17 00:21:23;;;;;;;14.57;3.47;;;;;10.20;100854.00;;;;5110211;28;20502;-69
2021/07/17 00:23:51;;;;;;;8.35;2.63;;;;;10.20;100849.00;;;;5109806;28;20035;-69
2021/07/17 00:26:17;;;;;;;13.52;2.88;;;;;10.20;100833.00;;;;5110458;28;20028;-70
2021/07/17 00:28:44;;;;;;;12.77;2.88;;;;;10.10;100833.00;;;;5110321;28;20569;-69
2021/07/17 00:31:11;;;;;;;14.45;3.40;;;;;10.00;100833.00;;;;5109703;28;20059;-70
2021/07/17 00:33:37;;;;;;;18.50;3.05;;;;;9.90;100831.00;;;;5109232;28;20088;-70
2021/07/17 00:36:05;;;;;;;13.50;2.70;;;;;10.00;100819.00;;;;5110091;28;20122;-71
2021/07/17 00:38:31;;;;;;;14.98;3.15;;;;;9.90;100822.00;;;;5110295;28;20432;-71
2021/07/17 00:40:58;;;;;;;11.60;2.45;;;;;9.90;100802.00;;;;5110435;28;20027;-70
2021/07/17 00:43:25;;;;;;;11.00;2.90;;;;;9.80;100810.00;;;;5110480;28;20026;-70
2021/07/17 00:45:51;;;;;;;9.18;2.55;;;;;9.80;100807.00;;;;5110042;28;20028;-71
2021/07/17 00:48:18;;;;;;;16.25;3.00;;;;;9.80;100811.00;;;;5109987;28;20031;-71
2021/07/17 00:50:45;;;;;;;19.17;3.05;;;;;9.80;100795.00;;;;5092030;28;20479;-68
2021/07/17 00:53:11;;;;;;;18.00;3.28;;;;;9.80;100795.00;;;;5110744;28;20028;-70
2021/07/17 00:55:41;;;;;;;18.23;2.72;;;;;9.70;100795.00;;;;5110058;28;20068;-70
2021/07/17 00:58:10;;;;;;;8.77;2.13;;;;;9.70;100807.00;;;;5109340;28;20039;-70
2021/07/17 01:00:37;;;;;;;11.90;2.53;;;;;9.70;100810.00;;;;5109158;28;20032;-70
2021/07/17 01:03:10;;;;;;;17.80;2.22;;;;;9.70;100815.00;;;;5109567;28;20492;-69
2021/07/17 01:05:37;;;;;;;17.33;2.50;;;;;9.70;100819.00;;;;5109150;28;20551;-69
2021/07/17 01:08:04;;;;;;;15.13;2.08;;;;;9.70;100813.00;;;;5109784;28;20031;-71
2021/07/17 01:10:31;;;;;;;14.35;2.55;;;;;9.70;100825.00;;;;5109873;28;20020;-71
2021/07/17 01:12:58;;;;;;;15.02;2.55;;;;;9.70;100820.00;;;;5109970;28;20024;-69
2021/07/17 01:15:25;;;;;;;12.50;3.03;;;;;9.70;100796.00;;;;5108631;28;20391;-71
2021/07/17 01:17:52;;;;;;;16.63;3.13;;;;;9.70;100806.00;;;;5108653;28;20051;-71
2021/07/17 01:20:22;;;;;;;16.80;2.60;;;;;9.70;100808.00;;;;5109095;28;20031;-71
2021/07/17 01:22:49;;;;;;;18.45;3.28;;;;;9.70;100787.00;;;;5108793;28;20126;-71
2021/07/17 01:25:27;;;;;;;13.23;3.22;;;;;9.60;100784.00;;;;5107813;28;20115;-69
2021/07/17 01:27:56;;;;;;;15.82;3.00;;;;;9.60;100809.00;;;;5108001;28;20089;-69
2021/07/17 01:30:26;;;;;;;16.40;2.95;;;;;9.50;100800.00;;;;5108116;28;20067;-70
2021/07/17 01:32:53;;;;;;;16.52;3.67;;;;;9.60;100789.00;;;;5108697;28;20041;-69
2021/07/17 01:35:19;;;;;;;16.40;3.90;;;;;9.60;100798.00;;;;5109475;28;20030;-70
2021/07/17 01:37:46;;;;;;;11.25;3.38;;;;;9.60;100788.00;;;;5109590;28;20063;-69
2021/07/17 01:40:21;;;;;;;16.83;3.60;;;;;9.60;100768.00;;;;5109111;28;20027;-71
2021/07/17 01:42:53;;;;;;;11.68;2.60;;;;;9.50;100763.00;;;;5108850;28;20031;-71
2021/07/17 01:45:32;;;;;;;14.57;2.50;;;;;9.40;100770.00;;;;5108430;28;20107;-70
2021/07/17 01:47:58;;;;;;;14.68;2.58;;;;;9.40;100772.00;;;;5108884;28;20039;-68
2021/07/17 01:50:30;;;;;;;20.88;3.85;;;;;9.40;100767.00;;;;5107570;28;20028;-71
2021/07/17 01:53:00;;;;;;;14.15;2.67;;;;;9.40;100762.00;;;;5108684;28;20490;-69
2021/07/17 01:55:27;;;;;;;8.18;2.40;;;;;9.40;100769.00;;;;5108788;28;20016;-70
2021/07/17 01:57:54;;;;;;;13.38;2.63;;;;;9.40;100768.00;;;;5108514;28;20067;-71
2021/07/17 02:00:21;;;;;;;18.15;2.42;;;;;9.40;100779.00;;;;5108255;28;20133;-71
2021/07/17 02:02:49;;;;;;;11.15;2.28;;;;;9.40;100767.00;;;;5090901;28;20040;-70
2021/07/17 02:05:16;;;;;;;11.75;2.35;;;;;9.40;100770.00;;;;5090689;28;20031;-71
2021/07/17 02:07:47;;;;;;;13.02;2.50;;;;;9.30;100766.00;;;;5108088;28;20054;-70
2021/07/17 02:10:20;;;;;;;8.95;1.75;;;;;9.30;100759.00;;;;5109051;28;20030;-70
2021/07/17 02:12:58;;;;;;;13.10;2.28;;;;;9.40;100767.00;;;;5108260;28;20100;-69
2021/07/17 02:15:25;;;;;;;17.20;5.13;;;;;9.40;100754.00;;;;5108195;28;20490;-72
2021/07/17 02:17:53;;;;;;;13.82;4.82;;;;;9.40;100749.00;;;;5108484;28;20073;-71
2021/07/17 02:20:20;;;;;;;11.73;2.80;;;;;9.30;100723.00;;;;5108587;28;20040;-70
2021/07/17 02:22:47;;;;;;;17.17;4.47;;;;;9.30;100730.00;;;;5108666;28;20028;-72
2021/07/17 02:25:14;;;;;;;12.57;3.10;;;;;9.40;100742.00;;;;5108344;28;20031;-70
2021/07/17 02:27:40;;;;;;;13.32;3.60;;;;;9.40;100731.00;;;;5108596;28;20118;-70
2021/07/17 02:30:09;;;;;;;13.38;4.03;;;;;9.50;100728.00;;;;5108634;28;20496;-68
2021/07/17 02:32:36;;;;;;;16.40;4.32;;;;;9.50;100727.00;;;;5108297;28;20490;-69
2021/07/17 02:35:05;;;;;;;10.48;3.60;;;;;9.50;100711.00;;;;5108031;28;20452;-68
2021/07/17 02:37:31;;;;;;;9.93;3.42;;;;;9.50;100711.00;;;;5106952;28;20836;-68
2021/07/17 02:39:58;;;;;;;13.82;2.80;;;;;9.40;100701.00;;;;5108270;28;20530;-71
2021/07/17 02:42:25;;;;;;;12.98;2.15;;;;;9.30;100696.00;;;;5107560;28;20544;-70
2021/07/17 02:44:52;;;;;;;10.93;2.42;;;;;9.40;100690.00;;;;5107364;28;20032;-72
2021/07/17 02:47:18;;;;;;;14.85;2.13;;;;;9.40;100697.00;;;;5108088;28;20031;-69
2021/07/17 02:49:45;;;;;;;7.05;2.05;;;;;9.30;100705.00;;;;5107775;28;20504;-71
2021/07/17 02:52:12;;;;;;;11.52;2.30;;;;;9.30;100692.00;;;;5107743;28;20612;-69
2021/07/17 02:54:38;;;;;;;37.92;5.30;;;;;9.30;100694.00;;;;5108621;28;20508;-70
2021/07/17 02:57:05;;;;;;;12.10;4.10;;;;;9.20;100685.00;;;;5107219;28;20524;-69
2021/07/17 02:59:31;;;;;;;8.82;3.85;;;;;9.20;100702.00;;;;5107718;28;20498;-69
2021/07/17 03:01:58;;;;;;;15.02;4.50;;;;;9.10;100704.00;;;;5107469;28;20066;-71
2021/07/17 03:04:24;;;;;;;11.00;3.45;;;;;9.10;100688.00;;;;5107648;28;20044;-71
2021/07/17 03:06:51;;;;;;;20.35;3.50;;;;;9.10;100681.00;;;;5107475;28;20521;-71
2021/07/17 03:09:17;;;;;;;16.98;2.80;;;;;9.30;100685.00;;;;5107487;28;20429;-70
2021/07/17 03:11:44;;;;;;;7.85;2.67;;;;;9.20;100687.00;;;;5107255;28;20115;-69
2021/07/17 03:14:11;;;;;;;15.52;2.50;;;;;9.20;100675.00;;;;5107605;28;20123;-71
2021/07/17 03:16:38;;;;;;;9.85;2.25;;;;;9.20;100677.00;;;;5106657;28;20023;-70
2021/07/17 03:19:05;;;;;;;9.90;2.63;;;;;9.20;100695.00;;;;5107630;28;20035;-70
2021/07/17 03:21:31;;;;;;;10.50;2.22;;;;;9.30;100694.00;;;;5107396;28;20035;-70
2021/07/17 03:23:59;;;;;;;15.15;2.45;;;;;9.30;100690.00;;;;5106701;28;20030;-71
2021/07/17 03:26:25;;;;;;;13.02;2.28;;;;;9.30;100697.00;;;;5107129;28;20186;-71
2021/07/17 03:28:52;;;;;;;17.15;2.60;;;;;9.30;100688.00;;;;5106936;28;20032;-70
2021/07/17 03:31:26;;;;;;;11.23;2.10;;;;;9.40;100680.00;;;;5107074;28;20027;-69
2021/07/17 03:33:53;;;;;;;13.55;2.30;;;;;9.40;100680.00;;;;5107390;28;20406;-68
2021/07/17 03:36:20;;;;;;;6.95;2.28;;;;;9.40;100678.00;;;;5106987;28;20527;-69
2021/07/17 03:38:46;;;;;;;11.88;2.40;;;;;9.30;100693.00;;;;5106718;28;20486;-70
2021/07/17 03:41:13;;;;;;;13.55;2.15;;;;;9.40;100678.00;;;;5106887;28;20080;-70
2021/07/17 03:43:40;;;;;;;18.50;3.08;;;;;9.40;100675.00;;;;5107018;28;20106;-70
2021/07/17 03:46:06;;;;;;;14.13;2.67;;;;;9.50;100676.00;;;;5107426;28;20019;-69
2021/07/17 03:48:33;;;;;;;7.88;2.40;;;;;9.60;100672.00;;;;5106716;28;20081;-69
2021/07/17 03:51:00;;;;;;;16.27;2.88;;;;;9.60;100661.00;;;;5106658;28;20176;-71
2021/07/17 03:53:28;;;;;;;12.38;2.50;;;;;9.60;100682.00;;;;5106554;28;20019;-69
2021/07/17 03:55:54;;;;;;;20.45;2.83;;;;;9.60;100669.00;;;;5106500;28;20547;-70
2021/07/17 03:58:23;;;;;;;12.77;2.55;;;;;9.70;100674.00;;;;5088651;28;20130;-71
2021/07/17 04:00:50;;;;;;;15.13;2.88;;;;;9.70;100670.00;;;;5106282;28;20047;-70
2021/07/17 04:03:17;;;;;;;18.35;2.97;;;;;9.80;100677.00;;;;5106369;28;20024;-72
2021/07/17 04:05:43;;;;;;;18.95;3.45;;;;;9.80;100681.00;;;;5106089;28;20966;-71
2021/07/17 04:08:11;;;;;;;17.95;2.78;;;;;9.80;100672.00;;;;5106522;28;20024;-69
2021/07/17 04:10:37;;;;;;;12.57;2.30;;;;;9.80;100672.00;;;;5106484;28;20035;-69
2021/07/17 04:13:05;;;;;;;17.60;2.65;;;;;9.80;100670.00;;;;5107620;28;20517;-70
2021/07/17 04:15:31;;;;;;;17.30;2.53;;;;;9.80;100674.00;;;;5106961;28;20019;-68
2021/07/17 04:17:58;;;;;;;14.80;2.72;;;;;9.80;100672.00;;;;5106281;28;20020;-71
2021/07/17 04:20:25;;;;;;;19.88;2.60;;;;;9.80;100671.00;;;;5106445;28;20028;-71
2021/07/17 04:22:52;;;;;;;12.55;2.55;;;;;9.70;100674.00;;;;5106390;28;20039;-71
2021/07/17 04:25:18;;;;;;;10.20;2.28;;;;;9.80;100678.00;;;;5106593;28;20042;-69
2021/07/17 04:27:45;;;;;;;17.40;2.55;;;;;9.80;100666.00;;;;5106518;28;20020;-70
2021/07/17 04:30:12;;;;;;;16.02;2.70;;;;;9.70;100672.00;;;;5106922;28;20027;-72
2021/07/17 04:32:39;;;;;;;15.60;3.05;;;;;9.70;100676.00;;;;5105998;28;20107;-69
2021/07/17 04:35:07;;;;;;;16.05;2.88;;;;;9.70;100667.00;;;;5106640;28;20019;-71
2021/07/17 04:37:34;;;;;;;10.27;2.15;;;;;9.70;100647.00;;;;5106928;28;20038;-70
2021/07/17 04:40:01;;;;;;;12.98;3.15;;;;;9.70;100659.00;;;;5106515;28;20027;-71
2021/07/17 04:42:28;;;;;;;10.57;2.58;;;;;9.60;100659.00;;;;5107067;28;20119;-70
2021/07/17 04:44:54;;;;;;;11.27;2.58;;;;;9.60;100660.00;;;;5106401;28;20116;-70
2021/07/17 04:47:21;;;;;;;16.60;2.70;;;;;9.50;100662.00;;;;5105793;28;20031;-72
2021/07/17 04:49:47;;;;;;;15.43;2.58;;;;;9.60;100658.00;;;;5106356;28;20059;-70
2021/07/17 04:52:14;;;;;;;18.65;2.70;;;;;9.60;100682.00;;;;5106506;28;20043;-70
2021/07/17 04:54:40;;;;;;;21.52;2.78;;;;;9.50;100664.00;;;;5105794;28;20034;-70
2021/07/17 04:57:07;;;;;;;15.20;3.20;;;;;9.50;100678.00;;;;5105612;28;20138;-70
2021/07/17 04:59:33;;;;;;;15.02;3.20;;;;;9.50;100653.00;;;;5106019;28;20474;-70
2021/07/17 05:02:00;;;;;;;15.10;2.83;;;;;9.40;100660.00;;;;5109653;28;20073;-72
2021/07/17 05:04:27;;;;;;;15.60;3.20;;;;;9.40;100661.00;;;;5110587;28;20028;-69
2021/07/17 05:06:53;;;;;;;23.08;4.53;;;;;9.40;100650.00;;;;5109951;28;20026;-69
2021/07/17 05:09:20;;;;;;;13.23;3.33;;;;;9.50;100652.00;;;;5091384;28;20116;-70
2021/07/17 05:11:47;;;;;;;12.35;3.28;;;;;9.40;100655.00;;;;5109525;28;20478;-71
2021/07/17 05:14:13;;;;;;;17.25;4.13;;;;;9.40;100651.00;;;;5109543;28;20059;-70
2021/07/17 05:16:40;;;;;;;11.13;3.55;;;;;9.40;100660.00;;;;5109122;28;20036;-70
2021/07/17 05:19:06;;;;;;;21.23;3.22;;;;;9.40;100642.00;;;;5109454;28;20072;-70
2021/07/17 05:21:33;;;;;;;17.42;4.03;;;;;9.30;100651.00;;;;5109746;28;20030;-70
2021/07/17 05:24:00;;;;;;;13.60;3.08;;;;;9.20;100636.00;;;;5109662;28;20023;-69
2021/07/17 05:26:26;;;;;;;12.30;3.08;;;;;9.20;100632.00;;;;5109433;28;20042;-67
2021/07/17 05:28:53;;;;;;;14.85;3.58;;;;;9.10;100644.00;;;;5109105;28;20028;-70
2021/07/17 05:31:19;;;;;;;12.15;2.83;;;;;9.10;100652.00;;;;5109900;28;20076;-71
2021/07/17 05:33:46;;;;;;;12.77;3.28;;;;;9.10;100643.00;;;;5109548;28;20486;-69
2021/07/17 05:36:13;;;;;;;19.77;3.83;;;;;9.00;100629.00;;;;5109495;28;20410;-69
2021/07/17 05:38:40;;;;;;;10.93;2.92;;;;;9.00;100622.00;;;;5109005;28;20148;-69
2021/07/17 05:41:06;;;;;;;16.30;3.42;;;;;9.00;100631.00;;;;5090548;28;20028;-71
2021/07/17 05:43:33;;;;;;;13.48;2.80;;;;;9.10;100619.00;;;;5108585;28;20161;-71
2021/07/17 05:45:59;;;;;;;13.55;3.00;;;;;9.00;100610.00;;;;5108710;28;20038;-72
2021/07/17 05:48:26;;;;;;;13.52;2.85;;;;;8.90;100631.00;;;;5108616;28;20027;-70
2021/07/17 05:50:52;;;;;;;13.00;2.75;;;;;8.90;100616.00;;;;5109200;28;20023;-70
2021/07/17 05:53:21;;;;;;;12.95;3.15;;;;;8.90;100610.00;;;;5109109;28;20027;-71
2021/07/17 05:55:48;;;;;;;13.60;2.67;;;;;8.90;100605.00;;;;5108971;28;20059;-71
2021/07/17 05:58:14;;;;;;;17.80;3.97;;;;;8.90;100608.00;;;;5108669;28;20039;-71
2021/07/17 06:00:42;;;;;;;13.20;3.13;;;;;8.90;100634.00;;;;5109144;28;20023;-71
2021/07/17 06:03:09;;;;;;;20.55;3.92;;;;;9.00;100627.00;;;;5108751;28;20038;-72
2021/07/17 06:05:36;;;;;;;14.23;2.92;;;;;9.00;100623.00;;;;5108823;28;20027;-68
2021/07/17 06:08:03;;;;;;;20.67;2.90;;;;;8.90;100621.00;;;;5108843;28;20051;-72
2021/07/17 06:10:30;;;;;;;13.00;2.78;;;;;9.00;100602.00;;;;5108800;28;20126;-70
2021/07/17 06:12:56;;;;;;;10.07;3.08;;;;;9.00;100600.00;;;;5109021;28;20031;-69
2021/07/17 06:15:23;;;;;;;17.70;3.85;;;;;9.00;100601.00;;;;5108761;28;20027;-71
2021/07/17 06:17:53;;;;;;;9.52;2.97;;;;;9.00;100600.00;;;;5108572;28;20502;-71
2021/07/17 06:20:21;;;;;;;12.57;3.63;;;;;8.90;100617.00;;;;5108404;28;20072;-71
2021/07/17 06:22:48;;;;;;;33.70;4.22;;;;;9.00;100637.00;;;;5108747;28;20039;-71
2021/07/17 06:25:15;;;;;;;19.65;3.95;;;;;9.00;100607.00;;;;5108299;28;20038;-71
2021/07/17 06:27:42;;;;;;;21.33;5.25;;;;;9.10;100617.00;;;;5108413;28;20070;-71
2021/07/17 06:30:08;;;;;;;17.52;5.20;;;;;9.20;100627.00;;;;5108151;28;20458;-71
2021/07/17 06:32:35;;;;;;;20.90;4.32;;;;;9.20;100614.00;;;;5108432;28;20062;-71
2021/07/17 06:35:02;;;;;;;15.60;5.03;;;;;9.30;100639.00;;;;5108218;28;20437;-70
2021/07/17 06:37:28;;;;;;;17.17;6.00;;;;;9.30;100614.00;;;;5108332;28;20110;-70
2021/07/17 06:39:55;;;;;;;22.33;6.38;;;;;9.30;100626.00;;;;5107777;28;20055;-69
2021/07/17 06:42:22;;;;;;;21.45;6.78;;;;;9.40;100633.00;;;;5108579;28;20862;-69
2021/07/17 06:44:48;;;;;;;35.80;7.97;;;;;9.30;100635.00;;;;5107933;28;20066;-69
2021/07/17 06:47:15;;;;;;;18.67;5.38;;;;;9.20;100631.00;;;;5108525;28;20050;-71
2021/07/17 06:49:42;;;;;;;16.48;5.22;;;;;9.20;100619.00;;;;5108467;28;20032;-70
2021/07/17 06:52:08;;;;;;;18.45;5.85;;;;;9.20;100614.00;;;;5107542;28;20420;-69
2021/07/17 06:54:35;;;;;;;17.88;4.88;;;;;9.20;100598.00;;;;5107516;28;20028;-70
2021/07/17 06:57:01;;;;;;;14.93;5.97;;;;;9.20;100595.00;;;;5107635;28;20047;-68
2021/07/17 06:59:28;;;;;;;21.58;6.68;;;;;9.30;100602.00;;;;5089295;28;20158;-69
2021/07/17 07:01:54;;;;;;;12.38;5.45;;;;;9.30;100629.00;;;;5107532;28;20386;-72
2021/07/17 07:04:21;;;;;;;17.70;4.88;;;;;9.30;100615.00;;;;5108035;28;20127;-71
2021/07/17 07:06:47;;;;;;;18.45;4.90;;;;;9.30;100614.00;;;;5107577;28;20053;-68
2021/07/17 07:09:14;;;;;;;12.43;4.07;;;;;9.30;100609.00;;;;5107418;28;20413;-69
2021/07/17 07:11:40;;;;;;;20.83;5.28;;;;;9.20;100610.00;;;;5107877;28;20099;-70
2021/07/17 07:14:07;;;;;;;10.25;4.05;;;;;9.10;100620.00;;;;5107879;28;20164;-70
2021/07/17 07:16:34;;;;;;;12.60;4.30;;;;;9.10;100603.00;;;;5107496;28;20027;-70
2021/07/17 07:19:00;;;;;;;13.65;3.90;;;;;9.00;100620.00;;;;5107368;28;20436;-70
2021/07/17 07:21:27;;;;;;;17.00;4.35;;;;;8.90;100619.00;;;;5107258;28;20039;-71
2021/07/17 07:23:53;;;;;;;14.75;4.20;;;;;8.90;100611.00;;;;5106367;28;20039;-70
2021/07/17 07:26:20;;;;;;;17.27;4.70;;;;;8.80;100616.00;;;;5107384;28;20110;-69
2021/07/17 07:28:47;;;;;;;17.88;5.00;;;;;8.70;100618.00;;;;5107066;28;20112;-69
2021/07/17 07:31:13;;;;;;;16.80;4.50;;;;;8.70;100615.00;;;;5107507;28;20024;-69
2021/07/17 07:33:40;;;;;;;19.85;4.78;;;;;8.70;100612.00;;;;5107129;28;20034;-70
2021/07/17 07:36:06;;;;;;;15.90;4.18;;;;;8.70;100609.00;;;;5106496;28;20504;-70
2021/07/17 07:38:33;;;;;;;13.70;4.82;;;;;8.70;100621.00;;;;5106999;28;20496;-70
2021/07/17 07:41:00;;;;;;;17.52;5.20;;;;;8.70;100611.00;;;;5107376;28;20034;-70
2021/07/17 07:43:26;;;;;;;14.98;5.18;;;;;8.70;100616.00;;;;5107148;28;20369;-70
2021/07/17 07:45:53;;;;;;;20.65;4.80;;;;;8.60;100602.00;;;;5106867;28;20028;-69
2021/07/17 07:48:20;;;;;;;13.57;4.80;;;;;8.50;100620.00;;;;5107056;28;20489;-69
2021/07/17 07:50:46;;;;;;;17.63;6.43;;;;;8.50;100615.00;;;;5106822;28;20054;-69
2021/07/17 07:53:13;;;;;;;18.60;6.78;;;;;8.50;100622.00;;;;5106471;28;20102;-69
2021/07/17 07:55:39;;;;;;;13.40;5.82;;;;;8.50;100615.00;;;;5106611;28;20027;-70
2021/07/17 07:58:06;;;;;;;17.92;5.75;;;;;8.40;100617.00;;;;5107162;28;20363;-70
2021/07/17 08:00:33;;;;;;;18.25;5.45;;;;;8.30;100607.00;;;;5106935;28;20074;-68
2021/07/17 08:03:00;;;;;;;12.60;5.10;;;;;8.30;100597.00;;;;5106953;28;20028;-69
2021/07/17 08:05:26;;;;;;;14.85;6.00;;;;;8.30;100592.00;;;;5106552;28;20042;-69
2021/07/17 08:07:54;;;;;;;19.58;7.35;;;;;8.30;100600.00;;;;5107435;28;20046;-71
2021/07/17 08:10:21;;;;;;;24.48;7.18;;;;;8.30;100602.00;;;;5106470;28;20559;-71
2021/07/17 08:12:48;;;;;;;30.02;7.65;;;;;8.30;100591.00;;;;5106924;28;20486;-71
2021/07/17 08:15:15;;;;;;;31.83;9.18;;;;;8.20;100606.00;;;;5106366;28;20035;-69
2021/07/17 08:17:42;;;;;;;28.48;8.77;;;;;8.30;100594.00;;;;5106369;28;20080;-68
2021/07/17 08:20:10;;;;;;;18.40;7.45;;;;;8.20;100598.00;;;;5106621;28;20583;-68
2021/07/17 08:22:38;;;;;;;27.08;7.75;;;;;8.30;100616.00;;;;5105567;28;20039;-70
2021/07/17 08:25:06;;;;;;;21.02;8.60;;;;;8.30;100609.00;;;;5106644;28;20028;-69
2021/07/17 08:27:33;;;;;;;32.10;8.77;;;;;8.30;100599.00;;;;5106219;28;20028;-69
2021/07/17 08:30:00;;;;;;;16.83;7.10;;;;;8.40;100613.00;;;;5106491;28;20042;-69
2021/07/17 08:32:27;;;;;;;16.73;7.85;;;;;8.40;100597.00;;;;5107000;28;20089;-71
2021/07/17 08:34:54;;;;;;;22.85;8.25;;;;;8.40;100602.00;;;;5109497;28;20023;-70
2021/07/17 08:37:21;;;;;;;29.15;10.48;;;;;8.40;100596.00;;;;5110019;28;20088;-69
2021/07/17 08:39:47;;;;;;;25.80;10.32;;;;;8.40;100614.00;;;;5110688;28;20362;-70
2021/07/17 08:42:17;;;;;;;27.83;12.07;;;;;8.30;100632.00;;;;5110599;28;20036;-70
2021/07/17 08:44:52;;;;;;;24.67;10.50;;;;;8.30;100626.00;;;;5110117;28;20070;-69
2021/07/17 08:47:20;;;;;;;27.25;11.65;;;;;8.20;100609.00;;;;5110142;28;20100;-70
2021/07/17 08:49:47;;;;;;;28.98;12.52;;;;;8.30;100623.00;;;;5110375;28;20572;-70
2021/07/17 08:52:14;;;;;;;33.80;13.95;;;;;8.30;100617.00;;;;5110325;28;20385;-70
2021/07/17 08:54:41;;;;;;;28.95;12.85;;;;;8.20;100609.00;;;;5110164;28;20034;-69
2021/07/17 08:57:11;;;;;;;26.85;10.77;;;;;8.20;100616.00;;;;5110168;28;20131;-71
2021/07/17 08:59:39;;;;;;;21.38;8.95;;;;;8.00;100618.00;;;;5110503;28;20031;-70
2021/07/17 09:02:07;;;;;;;30.13;9.00;;;;;8.10;100641.00;;;;5110182;28;20043;-71
2021/07/17 09:04:34;;;;;;;12.27;7.43;;;;;8.00;100626.00;;;;5109871;28;20105;-68
2021/07/17 09:07:00;;;;;;;14.75;7.47;;;;;8.10;100638.00;;;;5109668;28;20448;-71
2021/07/17 09:09:32;;;;;;;18.90;7.63;;;;;8.10;100640.00;;;;5109804;28;20019;-69
2021/07/17 09:11:59;;;;;;;8.63;5.13;;;;;8.10;100649.00;;;;5109680;28;20054;-69
2021/07/17 09:14:39;;;;;;;12.80;5.20;;;;;8.20;100634.00;;;;5110050;28;20032;-69
2021/07/17 09:17:06;;;;;;;13.25;5.72;;;;;8.20;100656.00;;;;5109731;28;20046;-71
2021/07/17 09:19:34;;;;;;;15.43;8.10;;;;;8.10;100659.00;;;;5109589;28;20080;-71
2021/07/17 09:22:02;;;;;;;17.05;6.97;;;;;8.10;100641.00;;;;5091174;28;20031;-71
2021/07/17 09:24:28;;;;;;;11.45;4.85;;;;;8.00;100658.00;;;;5110113;28;20027;-70
2021/07/17 09:26:59;;;;;;;13.43;5.53;;;;;7.90;100648.00;;;;5109340;28;20035;-71
2021/07/17 09:29:39;;;;;;;12.57;6.40;;;;;8.00;100643.00;;;;5109714;28;20413;-71
2021/07/17 09:32:06;;;;;;;12.70;5.88;;;;;8.00;100671.00;;;;5110100;28;20040;-71
2021/07/17 09:34:34;;;;;;;17.38;10.00;;;;;8.00;100679.00;;;;5109722;28;20156;-70
2021/07/17 09:37:12;;;;;;;16.85;9.10;;;;;8.00;100667.00;;;;5108924;28;20036;-71
2021/07/17 09:39:41;;;;;;;19.13;10.45;;;;;8.10;100655.00;;;;5109851;28;20062;-72
2021/07/17 09:42:14;;;;;;;20.58;10.82;;;;;8.10;100675.00;;;;5109450;28;20054;-71
2021/07/17 09:44:42;;;;;;;35.60;17.02;;;;;8.10;100665.00;;;;5109330;28;20040;-72
2021/07/17 09:47:26;;;;;;;24.95;14.35;;;;;8.20;100682.00;;;;5108429;28;20591;-70
2021/07/17 09:50:17;;;;;;;33.85;17.42;;;;;8.20;100675.00;;;;5109840;28;20485;-69
2021/07/17 09:52:45;;;;;;;28.50;15.20;;;;;8.20;100670.00;;;;5097493;28;20051;-70
2021/07/17 09:55:14;;;;;;;31.52;14.23;;;;;8.20;100655.00;;;;5108826;28;20410;-70
2021/07/17 09:57:41;;;;;;;37.38;17.40;;;;;8.20;100681.00;;;;5109335;28;20052;-70
2021/07/17 10:00:19;;;;;;;30.83;16.70;;;;;8.20;100674.00;;;;5108488;28;20497;-70
2021/07/17 10:02:46;;;;;;;23.02;11.38;;;;;8.20;100677.00;;;;5108727;28;20027;-71
2021/07/17 10:05:17;;;;;;;22.23;12.38;;;;;8.20;100670.00;;;;5107689;28;20028;-70
2021/07/17 10:07:44;;;;;;;25.48;14.38;;;;;8.10;100659.00;;;;5108170;28;20032;-71
2021/07/17 10:10:11;;;;;;;26.92;13.70;;;;;8.10;100691.00;;;;5107937;28;20024;-69
2021/07/17 10:12:42;;;;;;;27.50;15.88;;;;;8.10;100686.00;;;;5108484;28;20108;-69
2021/07/17 10:15:14;;;;;;;33.00;18.40;;;;;8.20;100684.00;;;;5108781;28;20031;-71
2021/07/17 10:17:43;;;;;;;34.03;19.05;;;;;8.20;100681.00;;;;5109239;28;20066;-70
2021/07/17 10:20:15;;;;;;;30.75;19.25;;;;;8.20;100682.00;;;;5108430;28;20592;-70
2021/07/17 10:22:42;;;;;;;28.20;18.67;;;;;8.30;100677.00;;;;5108088;28;20020;-72
2021/07/17 10:25:11;;;;;;;42.13;20.85;;;;;8.40;100671.00;;;;5107776;28;20055;-74
2021/07/17 10:27:39;;;;;;;31.85;19.60;;;;;8.40;100680.00;;;;5107712;28;20497;-70
2021/07/17 10:30:07;;;;;;;34.03;16.77;;;;;8.30;100694.00;;;;5108244;28;20034;-69
2021/07/17 10:32:34;;;;;;;36.00;16.65;;;;;8.40;100678.00;;;;5108213;28;20051;-71
2021/07/17 10:35:01;;;;;;;42.75;16.98;;;;;8.40;100694.00;;;;5108238;28;20443;-70
2021/07/17 10:37:31;;;;;;;30.40;17.83;;;;;8.50;100699.00;;;;5108432;28;20142;-72
2021/07/17 10:40:06;;;;;;;33.47;17.90;;;;;8.50;100701.00;;;;5107309;28;20031;-72
2021/07/17 10:42:33;;;;;;;30.48;17.50;;;;;8.60;100687.00;;;;5108260;28;20039;-72
2021/07/17 10:45:00;;;;;;;53.72;26.23;;;;;8.90;100684.00;;;;5107592;28;20068;-69
2021/07/17 10:47:40;;;;;;;46.03;27.45;;;;;9.10;100684.00;;;;5107874;28;20027;-70
2021/07/17 10:50:12;;;;;;;97.00;32.53;;;;;9.20;100701.00;;;;5106970;28;20031;-72
2021/07/17 10:52:41;;;;;;;71.50;26.90;;;;;9.30;100705.00;;;;5107508;28;20421;-71
2021/07/17 10:55:27;;;;;;;89.50;26.80;;;;;9.30;100694.00;;;;5107568;28;20498;-70
2021/07/17 10:57:56;;;;;;;100.05;26.98;;;;;9.40;100697.00;;;;5106672;28;20048;-71
2021/07/17 11:00:44;;;;;;;300.45;25.30;;;;;9.30;100701.00;;;;5107541;28;20134;-70
2021/07/17 11:03:21;;;;;;;269.83;24.33;;;;;9.30;100692.00;;;;5107489;28;20089;-70
2021/07/17 11:05:49;;;;;;;363.08;26.10;;;;;9.30;100718.00;;;;5107076;28;20035;-72
2021/07/17 11:08:35;;;;;;;297.85;23.90;;;;;9.40;100715.00;;;;5108343;28;20035;-70
2021/07/17 11:11:22;;;;;;;248.57;19.98;;;;;9.40;100713.00;;;;5107270;28;20031;-69
2021/07/17 11:13:49;;;;;;;362.77;22.08;;;;;9.40;100697.00;;;;5096434;28;20140;-70
2021/07/17 11:16:48;;;;;;;353.67;23.63;;;;;9.30;100709.00;;;;5106798;28;20053;-69
2021/07/17 11:19:28;;;;;;;235.20;19.30;;;;;9.30;100720.00;;;;5106735;28;20448;-71
2021/07/17 11:22:07;;;;;;;154.93;19.85;;;;;9.30;100719.00;;;;5088880;28;20032;-70
2021/07/17 11:24:34;;;;;;;207.43;19.75;;;;;9.40;100720.00;;;;5107221;28;20100;-71
2021/07/17 11:27:15;;;;;;;473.65;24.13;;;;;9.50;100713.00;;;;5106982;28;20034;-71
2021/07/17 11:29:43;;;;;;;485.25;24.15;;;;;9.40;100735.00;;;;5088606;28;20512;-69
2021/07/17 11:32:12;;;;;;;482.15;24.48;;;;;9.50;100721.00;;;;5107625;28;20027;-70
2021/07/17 11:34:42;;;;;;;374.10;23.70;;;;;9.60;100728.00;;;;5107923;28;20411;-69
2021/07/17 11:37:11;;;;;;;300.88;19.98;;;;;9.60;100737.00;;;;5107145;28;20027;-71
2021/07/17 11:39:41;;;;;;;352.65;22.30;;;;;9.70;100727.00;;;;5107111;28;20548;-71
2021/07/17 11:42:10;;;;;;;232.45;18.20;;;;;9.60;100724.00;;;;5107200;28;20028;-71
2021/07/17 11:44:39;;;;;;;300.27;19.60;;;;;9.70;100726.00;;;;5107016;28;20034;-72
2021/07/17 11:47:10;;;;;;;256.63;17.70;;;;;9.80;100746.00;;;;5107067;28;20412;-70
2021/07/17 11:49:40;;;;;;;217.52;18.83;;;;;10.00;100738.00;;;;5106850;28;20046;-72
2021/07/17 11:52:09;;;;;;;227.30;17.20;;;;;10.00;100760.00;;;;5106986;28;20027;-71
2021/07/17 11:54:42;;;;;;;194.43;15.65;;;;;10.10;100730.00;;;;5106552;28;20030;-71
2021/07/17 11:57:19;;;;;;;168.40;18.20;;;;;10.20;100761.00;;;;5106578;28;20057;-72
2021/07/17 11:59:56;;;;;;;244.35;17.83;;;;;10.30;100749.00;;;;5107489;28;20064;-70
2021/07/17 12:02:28;;;;;;;75.97;15.48;;;;;10.30;100760.00;;;;5106731;28;20776;-71
2021/07/17 12:04:57;;;;;;;61.38;15.20;;;;;10.10;100750.00;;;;5106254;28;20031;-71
2021/07/17 12:07:31;;;;;;;46.83;15.75;;;;;10.40;100770.00;;;;5106415;28;20458;-71
2021/07/17 12:10:04;;;;;;;52.05;16.10;;;;;10.40;100776.00;;;;5106918;28;20023;-71
2021/07/17 12:12:33;;;;;;;75.43;14.82;;;;;10.40;100770.00;;;;5106734;28;20028;-70